Time;durP1;ratioP1;P1;durP2;ratioP2;P2;SDS_P1;SDS_P2;PMS_P1;PMS_P2;Temp;Humidity;BMP_temperature;BMP_pressure;BME280_temperature;BME280_humidity;BME280_pressure;Samples;Min_cycle;Max_cycle;Signal;HPM_P1;HPM_P2
2022/08/02 00:02:19;;;;;;;2.17;1.98;;;;;;;21.75;54.45;97469.91;5014761;28;20038;-74
2022/08/02 00:04:45;;;;;;;3.40;2.13;;;;;;;21.77;54.53;97472.25;5007550;28;20034;-74
2022/08/02 00:07:11;;;;;;;2.33;2.13;;;;;;;21.78;55.12;97469.28;5008983;28;20524;-74
2022/08/02 00:09:36;;;;;;;2.55;2.35;;;;;;;21.79;55.02;97475.38;5008353;28;20030;-74
2022/08/02 00:12:01;;;;;;;3.75;2.78;;;;;;;21.81;54.77;97468.66;5007640;28;20049;-74
2022/08/02 00:14:27;;;;;;;2.55;2.10;;;;;;;21.85;54.68;97463.53;5007410;28;20492;-74
2022/08/02 00:16:52;;;;;;;2.90;2.70;;;;;;;21.91;54.58;97464.16;5008638;28;20033;-74
2022/08/02 00:19:18;;;;;;;2.72;2.53;;;;;;;21.85;54.74;97461.66;5006962;28;20450;-74
2022/08/02 00:21:43;;;;;;;2.80;2.50;;;;;;;21.84;54.81;97468.03;5007639;28;20065;-74
2022/08/02 00:24:08;;;;;;;2.58;2.38;;;;;;;21.84;54.74;97467.25;4991310;28;20441;-74
2022/08/02 00:26:37;;;;;;;2.58;2.03;;;;;;;21.81;54.83;97459.91;4991325;28;20041;-74
2022/08/02 00:29:02;;;;;;;2.13;2.03;;;;;;;21.82;54.63;97459.63;4992364;28;20465;-74
2022/08/02 00:31:28;;;;;;;2.42;2.17;;;;;;;21.80;54.62;97467.09;4994713;28;20034;-74
2022/08/02 00:33:53;;;;;;;2.40;2.20;;;;;;;21.76;54.90;97465.38;5010807;28;20030;-74
2022/08/02 00:36:19;;;;;;;3.13;2.17;;;;;;;21.72;55.04;97470.50;5010822;28;20482;-74
2022/08/02 00:38:45;;;;;;;2.65;2.33;;;;;;;21.69;55.05;97471.13;5010537;28;20056;-74
2022/08/02 00:41:15;;;;;;;2.67;2.47;;;;;;;21.56;55.20;97472.03;5010495;28;20038;-74
2022/08/02 00:43:41;;;;;;;2.55;2.35;;;;;;;21.59;55.42;97471.41;4992407;28;20039;-74
2022/08/02 00:46:07;;;;;;;2.67;2.20;;;;;;;21.57;55.67;97473.59;4991024;28;20108;-74
2022/08/02 00:48:35;;;;;;;2.70;2.50;;;;;;;21.57;55.34;97476.25;4990511;28;20109;-74
2022/08/02 00:51:01;;;;;;;2.40;2.10;;;;;;;21.56;55.34;97472.03;4991735;28;20049;-74
2022/08/02 00:53:26;;;;;;;2.55;2.35;;;;;;;21.54;55.77;97476.88;4975053;28;20398;-74
2022/08/02 00:55:52;;;;;;;2.95;2.65;;;;;;;21.54;55.60;97466.28;4990981;28;20022;-74
2022/08/02 00:58:20;;;;;;;2.67;2.22;;;;;;;21.48;55.70;97460.34;4990635;28;20113;-74
2022/08/02 01:00:46;;;;;;;2.67;2.00;;;;;;;21.53;55.77;97460.19;5006951;28;20078;-74
2022/08/02 01:03:12;;;;;;;2.22;2.03;;;;;;;21.50;55.61;97453.63;4974776;28;20552;-74
2022/08/02 01:05:37;;;;;;;2.40;2.20;;;;;;;21.51;55.81;97460.50;4991943;28;20398;-74
2022/08/02 01:08:03;;;;;;;2.55;2.35;;;;;;;21.49;55.89;97457.38;4990778;28;20542;-74
2022/08/02 01:10:28;;;;;;;3.08;2.40;;;;;;;21.42;55.79;97457.03;4990380;28;20100;-74
2022/08/02 01:12:54;;;;;;;2.60;2.38;;;;;;;21.36;56.00;97447.66;4991769;28;20085;-74
2022/08/02 01:15:20;;;;;;;2.58;2.38;;;;;;;21.27;56.14;97460.09;4974204;28;20032;-74
2022/08/02 01:17:54;;;;;;;2.92;2.63;;;;;;;21.28;55.94;97467.75;5006242;28;20049;-74
2022/08/02 01:20:29;;;;;;;2.38;2.17;;;;;;;21.29;55.70;97468.53;4990223;28;20042;-74
2022/08/02 01:23:35;;;;;;;2.55;2.35;;;;;;;21.08;55.79;97461.13;4990392;28;20560;-74
2022/08/02 01:26:24;;;;;;;7.18;2.92;;;;;;;21.03;56.51;97460.50;4991899;28;20069;-74
2022/08/02 01:28:58;;;;;;;2.70;2.50;;;;;;;21.07;56.25;97462.19;4989817;28;20053;-74
2022/08/02 01:31:36;;;;;;;2.60;2.40;;;;;;;20.97;56.43;97472.28;4974076;28;20493;-74
2022/08/02 01:34:05;;;;;;;3.83;3.10;;;;;;;20.96;56.49;97463.56;4990288;28;20030;-74
2022/08/02 01:36:39;;;;;;;3.00;2.80;;;;;;;20.89;56.72;97463.22;5006203;28;20065;-74
2022/08/02 01:39:07;;;;;;;2.80;2.50;;;;;;;20.89;56.63;97468.53;4990748;28;20585;-74
2022/08/02 01:41:33;;;;;;;3.90;2.67;;;;;;;20.87;57.01;97466.19;4973763;28;20038;-74
2022/08/02 01:44:00;;;;;;;3.75;2.75;;;;;;;20.86;56.95;97467.25;5006183;28;20466;-74
2022/08/02 01:46:26;;;;;;;3.13;2.20;;;;;;;20.84;56.90;97468.66;5005915;28;20565;-74
2022/08/02 01:48:53;;;;;;;2.40;2.20;;;;;;;20.88;56.21;97473.00;4972870;28;20030;-74
2022/08/02 01:52:20;;;;;;;2.65;2.45;;;;;;;20.80;56.40;97472.97;4989950;28;20026;-74
2022/08/02 01:54:07;;;;;;;3.22;2.92;;;;;;;20.88;55.53;97480.19;4989416;28;20041;-74
2022/08/02 01:56:36;;;;;;;3.20;2.92;;;;;;;20.89;55.53;97477.25;4989335;28;20057;-74
2022/08/02 01:59:04;;;;;;;3.05;2.75;;;;;;;20.71;55.72;97475.56;4990405;28;20573;-74
2022/08/02 02:01:31;;;;;;;2.72;2.53;;;;;;;20.67;56.15;97478.06;4973387;28;20367;-74
2022/08/02 02:03:58;;;;;;;4.53;2.40;;;;;;;20.57;56.62;97471.09;5005994;28;20402;-74
2022/08/02 02:06:24;;;;;;;3.05;2.80;;;;;;;20.54;57.08;97476.22;4989430;28;20058;-74
2022/08/02 02:08:50;;;;;;;3.30;2.67;;;;;;;20.48;57.64;97472.16;5005571;28;20062;-74
2022/08/02 02:11:16;;;;;;;3.55;3.25;;;;;;;20.50;57.47;97464.69;5005713;28;20034;-74
2022/08/02 02:13:42;;;;;;;3.67;2.65;;;;;;;20.51;57.31;97474.19;5006098;28;20064;-74
2022/08/02 02:16:07;;;;;;;3.13;2.83;;;;;;;20.46;57.76;97461.06;5005632;28;20158;-74
2022/08/02 02:18:39;;;;;;;3.25;2.95;;;;;;;20.32;57.91;97464.59;5005386;28;20046;-74
2022/08/02 02:21:04;;;;;;;3.40;2.95;;;;;;;20.42;57.98;97468.81;4989161;28;20053;-74
2022/08/02 02:23:30;;;;;;;2.60;2.40;;;;;;;20.43;57.99;97465.13;4989257;28;20034;-74
2022/08/02 02:25:56;;;;;;;3.63;3.28;;;;;;;20.38;58.02;97465.22;5005461;28;20402;-74
2022/08/02 02:28:29;;;;;;;3.25;2.95;;;;;;;20.32;58.08;97463.78;4989155;28;20390;-74
2022/08/02 02:31:09;;;;;;;3.03;2.80;;;;;;;20.21;58.62;97455.31;4988863;28;20080;-74
2022/08/02 02:33:38;;;;;;;3.00;2.80;;;;;;;20.19;58.63;97452.19;4988868;28;20038;-74
2022/08/02 02:36:04;;;;;;;2.55;2.35;;;;;;;20.21;58.83;97456.09;4989039;28;20200;-74
2022/08/02 02:38:30;;;;;;;2.97;2.67;;;;;;;20.13;58.72;97446.22;5005518;28;20224;-74
2022/08/02 02:40:58;;;;;;;4.43;3.17;;;;;;;20.07;58.47;97446.66;4988785;28;20034;-74
2022/08/02 02:43:27;;;;;;;4.60;3.10;;;;;;;20.06;58.09;97450.38;5005186;28;20038;-74
2022/08/02 02:45:54;;;;;;;3.00;2.70;;;;;;;20.08;58.20;97445.56;5005283;28;20054;-74
2022/08/02 02:48:20;;;;;;;3.70;3.40;;;;;;;20.04;58.44;97453.31;4988320;28;20065;-74
2022/08/02 02:50:46;;;;;;;3.42;3.08;;;;;;;20.04;58.31;97447.25;4971500;28;20446;-74
2022/08/02 02:53:12;;;;;;;2.97;2.78;;;;;;;20.06;58.62;97448.50;4989041;28;20030;-74
2022/08/02 02:55:38;;;;;;;3.50;3.20;;;;;;;20.06;58.80;97445.84;4988343;28;20378;-74
2022/08/02 02:58:04;;;;;;;4.07;3.10;;;;;;;20.07;58.98;97446.66;4988786;28;20136;-74
2022/08/02 03:03:14;;;;;;;3.25;2.92;;;;;;;20.01;59.01;97452.06;4989290;28;20027;-74
2022/08/02 03:05:39;;;;;;;4.00;3.60;;;;;;;20.00;59.13;97460.28;4972355;28;20023;-74
2022/08/02 03:08:05;;;;;;;4.72;3.47;;;;;;;19.96;59.25;97457.47;4988790;28;20102;-74
2022/08/02 03:10:30;;;;;;;3.78;3.00;;;;;;;19.97;59.53;97458.25;4987980;28;20061;-74
2022/08/02 03:12:57;;;;;;;2.97;2.70;;;;;;;19.97;59.56;97455.59;4988423;28;20034;-74
2022/08/02 03:15:22;;;;;;;3.75;3.33;;;;;;;20.00;59.53;97463.69;4988382;28;20038;-74
2022/08/02 03:17:48;;;;;;;3.50;3.20;;;;;;;20.02;59.75;97466.81;4988168;28;20418;-74
2022/08/02 03:20:18;;;;;;;2.97;2.67;;;;;;;19.96;59.90;97462.75;5004552;28;20038;-74
2022/08/02 03:22:45;;;;;;;3.25;2.95;;;;;;;20.08;59.74;97464.06;4988443;28;20298;-74
2022/08/02 03:25:11;;;;;;;4.97;3.58;;;;;;;20.13;59.85;97471.88;4988238;28;20042;-74
2022/08/02 03:27:37;;;;;;;13.25;3.80;;;;;;;20.14;59.69;97468.16;4988436;28;20136;-74
2022/08/02 03:30:04;;;;;;;3.35;3.05;;;;;;;20.11;59.60;97472.19;4971919;28;20503;-74
2022/08/02 03:32:30;;;;;;;4.15;3.55;;;;;;;20.16;59.72;97460.72;4988331;28;20105;-74
2022/08/02 03:34:58;;;;;;;3.70;3.40;;;;;;;20.18;59.56;97464.59;4988269;28;20394;-74
2022/08/02 03:37:24;;;;;;;4.63;3.85;;;;;;;20.15;59.56;97462.59;4989471;28;20030;-74
2022/08/02 03:39:50;;;;;;;3.58;3.28;;;;;;;20.09;59.55;97455.84;4987941;28;20124;-74
2022/08/02 03:42:16;;;;;;;3.00;2.70;;;;;;;20.13;59.53;97462.09;4972050;28;20346;-74
2022/08/02 03:44:41;;;;;;;3.50;3.20;;;;;;;20.12;59.33;97455.25;4971923;28;20038;-74
2022/08/02 03:47:07;;;;;;;3.55;3.08;;;;;;;20.13;59.38;97458.66;5003929;28;20039;-74
2022/08/02 03:49:33;;;;;;;3.45;3.15;;;;;;;20.16;59.56;97463.34;4987641;28;20039;-74
2022/08/02 03:51:59;;;;;;;3.92;3.63;;;;;;;20.14;59.33;97458.38;4988371;28;20023;-74
2022/08/02 03:54:25;;;;;;;3.83;3.42;;;;;;;20.15;59.32;97452.00;4988218;28;20057;-74
2022/08/02 03:56:51;;;;;;;3.20;2.90;;;;;;;20.17;59.25;97452.50;5004510;28;20119;-74
2022/08/02 03:59:19;;;;;;;3.92;3.55;;;;;;;20.17;59.64;97449.06;4987789;28;20123;-74
2022/08/02 04:01:45;;;;;;;3.40;3.10;;;;;;;20.18;59.38;97442.69;4988087;28;20091;-74
2022/08/02 04:04:11;;;;;;;3.60;3.20;;;;;;;20.18;59.33;97443.47;5008008;28;20038;-74
2022/08/02 04:06:36;;;;;;;3.50;3.20;;;;;;;20.24;59.24;97453.91;4975390;28;20041;-74
2022/08/02 04:09:02;;;;;;;3.45;3.17;;;;;;;20.18;58.83;97454.03;4991798;28;20061;-74
2022/08/02 04:11:30;;;;;;;3.50;3.03;;;;;;;20.10;58.89;97449.50;4975522;28;20041;-74
2022/08/02 04:13:57;;;;;;;3.38;3.08;;;;;;;20.05;59.04;97448.81;4992163;28;20498;-74
2022/08/02 04:16:41;;;;;;;2.97;2.75;;;;;;;19.97;59.04;97458.25;4991390;28;20030;-74
2022/08/02 04:19:10;;;;;;;3.90;3.13;;;;;;;20.06;58.65;97456.44;4974995;28;20035;-74
2022/08/02 04:21:39;;;;;;;3.60;3.25;;;;;;;19.98;58.68;97462.44;4997974;28;20041;-74
2022/08/02 04:24:06;;;;;;;3.65;2.88;;;;;;;19.96;58.95;97464.59;5011734;28;20032;-74
2022/08/02 04:26:33;;;;;;;3.38;3.08;;;;;;;19.94;59.16;97459.59;5009848;28;20489;-74
2022/08/02 04:28:59;;;;;;;3.78;3.03;;;;;;;20.00;59.40;97465.56;4977600;28;20029;-74
2022/08/02 04:31:25;;;;;;;3.15;2.85;;;;;;;19.99;59.40;97459.50;4990170;28;20057;-74
2022/08/02 04:33:50;;;;;;;3.45;3.15;;;;;;;19.98;59.42;97465.06;4991312;28;20034;-74
2022/08/02 04:36:16;;;;;;;3.22;3.00;;;;;;;19.99;59.23;97469.28;4991296;28;20062;-74
2022/08/02 04:38:41;;;;;;;3.00;2.80;;;;;;;20.00;59.52;97466.34;4990726;28;20034;-74
2022/08/02 04:41:07;;;;;;;2.67;2.47;;;;;;;20.03;59.33;97472.88;4991291;28;20037;-74
2022/08/02 04:43:33;;;;;;;3.67;3.25;;;;;;;20.07;59.40;97473.09;4992273;28;20498;-74
2022/08/02 04:46:01;;;;;;;3.50;3.20;;;;;;;20.11;59.51;97468.75;5007427;28;20034;-74
2022/08/02 04:48:29;;;;;;;3.15;2.85;;;;;;;20.17;59.60;97480.78;4990102;28;20442;-74
2022/08/02 04:50:55;;;;;;;3.22;2.92;;;;;;;20.23;59.27;97470.88;4992260;28;20041;-74
2022/08/02 04:53:20;;;;;;;3.30;3.00;;;;;;;20.27;59.27;97467.34;5007228;28;20112;-74
2022/08/02 04:55:46;;;;;;;3.78;3.40;;;;;;;20.34;59.21;97474.84;4990989;28;20026;-74
2022/08/02 04:58:12;;;;;;;3.33;3.10;;;;;;;20.42;58.91;97471.47;4991115;28;20546;-74
2022/08/02 05:00:38;;;;;;;3.92;3.50;;;;;;;20.52;58.78;97479.16;5005484;28;20112;-74
2022/08/02 05:03:03;;;;;;;3.90;3.53;;;;;;;20.55;58.68;97485.72;4989561;28;20038;-74
2022/08/02 05:05:28;;;;;;;3.40;3.10;;;;;;;20.61;58.41;97481.09;4990861;28;20173;-74
2022/08/02 05:07:54;;;;;;;3.85;3.45;;;;;;;20.66;58.39;97479.13;5006261;28;20038;-74
2022/08/02 05:10:25;;;;;;;4.13;3.70;;;;;;;20.65;58.27;97484.72;5005318;28;20044;-74
2022/08/02 05:12:51;;;;;;;3.88;3.38;;;;;;;20.71;58.37;97489.59;4989536;28;20490;-74
2022/08/02 05:15:17;;;;;;;3.80;3.50;;;;;;;20.68;58.25;97486.75;4988678;28;20085;-74
2022/08/02 05:17:43;;;;;;;3.75;3.45;;;;;;;20.72;58.32;97483.22;4989228;28;20497;-74
2022/08/02 05:20:12;;;;;;;3.65;3.35;;;;;;;20.75;58.43;97482.63;5005537;28;20348;-74
2022/08/02 05:22:37;;;;;;;3.40;3.05;;;;;;;20.76;58.88;97481.50;4989134;28;20034;-74
2022/08/02 05:25:03;;;;;;;3.58;3.30;;;;;;;20.78;59.11;97481.22;5005539;28;20036;-74
2022/08/02 05:27:28;;;;;;;3.72;3.42;;;;;;;20.81;59.31;97475.31;5005607;28;20453;-74
2022/08/02 05:29:54;;;;;;;3.88;3.58;;;;;;;20.86;58.83;97479.72;4988850;28;20420;-74
2022/08/02 05:32:20;;;;;;;3.28;3.05;;;;;;;20.92;58.72;97481.94;5005494;28;20038;-74
2022/08/02 05:34:45;;;;;;;3.75;3.30;;;;;;;21.02;58.61;97478.22;5005100;28;20034;-74
2022/08/02 05:37:11;;;;;;;3.20;2.90;;;;;;;21.08;58.23;97484.19;4990432;28;20116;-74
2022/08/02 05:39:39;;;;;;;3.95;3.65;;;;;;;21.17;58.08;97489.50;4988578;28;20467;-74
2022/08/02 05:42:04;;;;;;;3.60;3.30;;;;;;;21.21;57.91;97487.81;5005304;28;20105;-74
2022/08/02 05:44:30;;;;;;;4.47;3.35;;;;;;;21.31;58.09;97490.19;4990161;28;20034;-74
2022/08/02 05:46:55;;;;;;;3.90;3.58;;;;;;;21.38;57.76;97495.81;4990019;28;20041;-74
2022/08/02 05:49:20;;;;;;;3.90;3.60;;;;;;;21.44;57.13;97493.81;4989422;28;20034;-74
2022/08/02 05:51:58;;;;;;;4.30;3.65;;;;;;;21.33;57.24;97495.94;4989665;28;20482;-74
2022/08/02 05:54:47;;;;;;;3.45;3.13;;;;;;;21.50;56.83;97503.19;5006129;28;20219;-74
2022/08/02 05:57:25;;;;;;;3.80;3.50;;;;;;;21.62;56.51;97498.09;4989619;28;20502;-74
2022/08/02 06:00:04;;;;;;;3.42;3.13;;;;;;;21.78;56.12;97501.09;5005674;28;20529;-74
2022/08/02 06:02:42;;;;;;;4.32;3.95;;;;;;;21.99;56.12;97503.16;4989537;28;20060;-74
2022/08/02 06:05:10;;;;;;;3.40;3.10;;;;;;;22.16;55.14;97505.81;4989515;28;20042;-74
2022/08/02 06:07:36;;;;;;;3.58;3.28;;;;;;;22.33;54.86;97504.25;5006019;28;20132;-74
2022/08/02 06:10:03;;;;;;;3.80;3.40;;;;;;;22.41;54.54;97500.81;4972774;28;20023;-74
2022/08/02 06:12:31;;;;;;;3.78;3.42;;;;;;;22.41;54.43;97506.13;4989470;28;20022;-75
2022/08/02 06:14:58;;;;;;;4.00;3.47;;;;;;;22.49;54.81;97497.38;5005504;28;20135;-74
2022/08/02 06:17:24;;;;;;;4.50;3.72;;;;;;;22.68;54.37;97498.94;4990177;28;20038;-74
2022/08/02 06:19:49;;;;;;;4.30;3.90;;;;;;;22.79;54.29;97492.19;5005173;28;20038;-74
2022/08/02 06:22:15;;;;;;;3.40;3.10;;;;;;;22.93;53.98;97508.72;4989274;28;20033;-74
2022/08/02 06:24:48;;;;;;;3.53;3.10;;;;;;;22.93;54.09;97500.75;4989650;28;20043;-75
2022/08/02 06:27:14;;;;;;;3.10;2.80;;;;;;;23.28;53.37;97487.34;5005509;28;20077;-75
2022/08/02 06:29:41;;;;;;;3.22;2.92;;;;;;;23.41;52.89;97496.22;4990134;28;20144;-75
2022/08/02 06:32:08;;;;;;;3.15;2.95;;;;;;;23.57;52.86;97491.13;5005310;28;20101;-75
2022/08/02 06:34:39;;;;;;;3.30;2.90;;;;;;;23.55;52.94;97509.28;4972901;28;20069;-75
2022/08/02 06:37:13;;;;;;;2.80;2.60;;;;;;;23.82;51.86;97512.56;4989890;28;20026;-75
2022/08/02 06:39:51;;;;;;;3.30;2.83;;;;;;;23.80;52.31;97504.13;4972459;28;20494;-74
2022/08/02 06:42:21;;;;;;;2.55;2.30;;;;;;;24.12;51.24;97511.44;4989019;28;20117;-75
2022/08/02 06:44:46;;;;;;;4.65;2.75;;;;;;;24.25;50.68;97503.53;4979535;28;20125;-75
2022/08/02 06:47:12;;;;;;;3.10;2.80;;;;;;;24.47;50.47;97505.84;4988750;28;20071;-75
2022/08/02 06:49:37;;;;;;;3.30;2.80;;;;;;;24.44;50.43;97500.38;4988060;28;20039;-75
2022/08/02 06:52:03;;;;;;;3.08;2.65;;;;;;;24.51;50.30;97505.97;5005154;28;20081;-75
2022/08/02 06:54:29;;;;;;;3.05;2.85;;;;;;;24.59;50.26;97509.66;4972330;28;20557;-75
2022/08/02 06:56:54;;;;;;;2.60;2.40;;;;;;;24.85;49.55;97510.19;4988578;28;20023;-75
2022/08/02 06:59:20;;;;;;;2.55;2.13;;;;;;;25.13;49.23;97509.56;4988598;28;20041;-75
2022/08/02 07:01:45;;;;;;;2.20;2.10;;;;;;;25.32;47.90;97501.06;5004916;28;20077;-75
2022/08/02 07:04:10;;;;;;;2.40;2.20;;;;;;;25.29;47.95;97512.38;4988685;28;20034;-75
2022/08/02 07:06:36;;;;;;;2.65;2.45;;;;;;;25.36;48.33;97517.16;4988437;28;20073;-74
2022/08/02 07:09:01;;;;;;;2.78;2.50;;;;;;;25.24;48.17;97505.38;4988223;28;20046;-75
2022/08/02 07:11:26;;;;;;;2.45;2.25;;;;;;;25.24;48.37;97510.69;4972158;28;20032;-75
2022/08/02 07:13:52;;;;;;;2.65;2.45;;;;;;;25.29;48.38;97500.94;4988586;28;20038;-75
2022/08/02 07:16:17;;;;;;;2.63;2.42;;;;;;;25.54;47.66;97501.72;4972423;28;20471;-74
2022/08/02 07:18:45;;;;;;;3.67;2.42;;;;;;;25.66;47.55;97500.94;4987705;28;20517;-75
2022/08/02 07:21:13;;;;;;;2.50;2.35;;;;;;;25.81;47.07;97502.91;4988540;28;20259;-74
2022/08/02 07:23:39;;;;;;;2.40;2.20;;;;;;;26.09;46.65;97499.53;4988714;28;20030;-74
2022/08/02 07:26:04;;;;;;;3.35;2.60;;;;;;;26.52;45.76;97500.72;4988122;28;20533;-75
2022/08/02 07:28:30;;;;;;;2.55;1.95;;;;;;;26.76;43.94;97497.16;4987822;28;20038;-75
2022/08/02 07:30:55;;;;;;;2.20;2.10;;;;;;;26.90;43.52;97504.75;4988184;28;20038;-75
2022/08/02 07:33:20;;;;;;;2.60;2.40;;;;;;;27.08;42.33;97500.63;4988110;28;20251;-75
2022/08/02 07:35:46;;;;;;;2.42;2.30;;;;;;;27.41;41.91;97502.19;4987941;28;20081;-74
2022/08/02 07:38:11;;;;;;;2.28;2.08;;;;;;;27.40;42.07;97503.34;4990108;28;20478;-75
2022/08/02 07:40:37;;;;;;;2.40;2.00;;;;;;;27.61;41.68;97504.94;4976024;28;20100;-75
2022/08/02 07:43:02;;;;;;;2.38;2.28;;;;;;;27.74;40.92;97498.31;5008532;28;20066;-75
2022/08/02 07:45:28;;;;;;;2.67;2.47;;;;;;;28.04;40.12;97486.38;5004683;28;20030;-75
2022/08/02 07:48:03;;;;;;;2.40;2.20;;;;;;;28.09;39.83;97494.13;5008373;28;20088;-75
2022/08/02 07:50:28;;;;;;;2.10;2.00;;;;;;;28.46;38.37;97494.44;4991678;28;20033;-74
2022/08/02 07:52:54;;;;;;;2.20;2.10;;;;;;;28.44;38.48;97498.59;5008267;28;20026;-75
2022/08/02 07:55:19;;;;;;;2.13;2.03;;;;;;;28.80;37.82;97500.03;5008183;28;20034;-75
2022/08/02 07:57:46;;;;;;;1.95;1.85;;;;;;;28.85;36.47;97498.97;5008143;28;20459;-75
2022/08/02 08:00:14;;;;;;;1.98;1.88;;;;;;;28.98;36.63;97496.88;4991678;28;20255;-75
2022/08/02 08:02:40;;;;;;;1.88;1.63;;;;;;;29.14;36.25;97492.19;5007899;28;20054;-75
2022/08/02 08:05:06;;;;;;;2.08;1.80;;;;;;;29.09;36.66;97503.22;4991753;28;20069;-75
2022/08/02 08:07:32;;;;;;;1.80;1.70;;;;;;;29.36;35.02;97493.31;5008109;28;20042;-75
2022/08/02 08:09:58;;;;;;;1.67;1.50;;;;;;;29.47;34.21;97496.16;5007432;28;20042;-75
2022/08/02 08:12:24;;;;;;;1.40;1.30;;;;;;;29.72;31.67;97488.47;5007955;28;20034;-74
2022/08/02 08:14:49;;;;;;;2.60;1.65;;;;;;;30.02;32.10;97485.81;5007914;28;20088;-75
2022/08/02 08:17:17;;;;;;;1.48;1.20;;;;;;;30.51;30.52;97475.22;5007974;28;20026;-75
2022/08/02 08:19:43;;;;;;;1.42;1.40;;;;;;;30.77;30.66;97480.47;5007373;28;20042;-75
2022/08/02 08:22:08;;;;;;;1.60;1.50;;;;;;;31.03;30.71;97476.09;5008249;28;20059;-75
2022/08/02 08:24:33;;;;;;;2.88;1.63;;;;;;;30.70;30.42;97479.63;4992726;28;20038;-75
2022/08/02 08:26:59;;;;;;;1.88;1.77;;;;;;;30.94;29.81;97486.41;4991158;28;20028;-75
2022/08/02 08:29:25;;;;;;;1.50;1.40;;;;;;;31.09;30.15;97487.28;4992489;28;20684;-75
2022/08/02 08:31:51;;;;;;;1.77;1.67;;;;;;;31.24;30.12;97483.56;5007796;28;20054;-75
2022/08/02 08:34:16;;;;;;;1.67;1.58;;;;;;;31.51;29.62;97486.84;4991779;28;20070;-75
2022/08/02 08:36:41;;;;;;;1.80;1.70;;;;;;;31.21;29.34;97488.94;4992486;28;20031;-76
2022/08/02 08:39:08;;;;;;;1.73;1.60;;;;;;;30.68;30.85;97490.00;5007091;28;20062;-75
2022/08/02 08:41:34;;;;;;;1.80;1.70;;;;;;;30.65;31.42;97485.34;4992450;28;20046;-75
2022/08/02 08:44:00;;;;;;;1.90;1.80;;;;;;;31.12;31.08;97486.53;4991055;28;20109;-76
2022/08/02 08:46:28;;;;;;;2.00;1.90;;;;;;;31.56;30.88;97483.00;4990901;28;20239;-75
2022/08/02 08:48:59;;;;;;;1.70;1.60;;;;;;;31.14;31.54;97501.16;5005226;28;20046;-76
2022/08/02 08:51:29;;;;;;;2.00;1.90;;;;;;;30.83;31.42;97494.34;4991110;28;20089;-75
2022/08/02 08:53:55;;;;;;;1.77;1.67;;;;;;;31.35;30.34;97486.31;4990782;28;20487;-75
2022/08/02 08:56:21;;;;;;;1.85;1.75;;;;;;;31.36;30.29;97480.56;4974675;28;20034;-75
2022/08/02 08:58:47;;;;;;;2.10;2.00;;;;;;;31.36;29.89;97488.63;4990731;28;20069;-75
2022/08/02 09:01:14;;;;;;;1.67;1.58;;;;;;;30.79;30.99;97494.31;4990638;28;20038;-76
2022/08/02 09:03:39;;;;;;;2.30;2.15;;;;;;;30.37;31.92;97487.38;4974964;28;20038;-76
2022/08/02 09:06:05;;;;;;;1.63;1.58;;;;;;;30.25;31.92;97484.91;4990964;28;20065;-75
2022/08/02 09:08:32;;;;;;;1.80;1.60;;;;;;;30.09;32.90;97489.69;4991615;28;20465;-75
2022/08/02 09:10:58;;;;;;;2.30;1.90;;;;;;;30.25;33.16;97491.06;5007035;28;20516;-76
2022/08/02 09:13:31;;;;;;;2.05;1.88;;;;;;;30.51;32.37;97492.13;4990930;28;20037;-75
2022/08/02 09:16:02;;;;;;;2.17;2.08;;;;;;;30.70;31.92;97493.84;5006666;28;20022;-76
2022/08/02 09:18:29;;;;;;;2.40;2.22;;;;;;;30.73;31.64;97493.09;4991129;28;20026;-76
2022/08/02 09:20:56;;;;;;;2.42;2.22;;;;;;;31.20;31.19;97490.06;5006986;28;20042;-75
2022/08/02 09:23:22;;;;;;;1.80;1.70;;;;;;;31.24;31.21;97488.16;5006632;28;20405;-76
2022/08/02 09:26:08;;;;;;;1.60;1.55;;;;;;;31.60;30.79;97483.03;5006497;28;20038;-76
2022/08/02 09:28:39;;;;;;;1.70;1.60;;;;;;;32.03;29.85;97494.00;4990211;28;20125;-75
2022/08/02 09:31:08;;;;;;;2.03;1.92;;;;;;;32.20;29.04;97482.56;5006663;28;20437;-76
2022/08/02 09:33:36;;;;;;;1.77;1.67;;;;;;;31.84;30.51;97485.09;4990088;28;20073;-75
2022/08/02 09:36:11;;;;;;;2.47;2.28;;;;;;;31.80;30.50;97491.59;4974011;28;20037;-76
2022/08/02 09:38:38;;;;;;;2.53;2.10;;;;;;;32.26;29.91;97491.81;4989814;28;20105;-76
2022/08/02 09:41:05;;;;;;;2.15;2.00;;;;;;;32.15;30.13;97493.72;4973995;28;20046;-76
2022/08/02 09:43:38;;;;;;;1.80;1.70;;;;;;;31.84;30.24;97489.69;5006408;28;20061;-76
2022/08/02 09:46:19;;;;;;;2.47;2.30;;;;;;;31.76;30.54;97480.06;4989861;28;20041;-76
2022/08/02 09:48:48;;;;;;;1.80;1.70;;;;;;;31.72;30.83;97482.69;4972975;28;20104;-75
2022/08/02 09:51:20;;;;;;;1.90;1.80;;;;;;;32.07;29.09;97489.44;4990105;28;20105;-75
2022/08/02 09:53:47;;;;;;;2.17;1.98;;;;;;;31.99;28.94;97477.06;5006198;28;20045;-75
2022/08/02 09:56:13;;;;;;;1.85;1.75;;;;;;;31.48;29.89;97474.09;5006226;28;20038;-76
2022/08/02 09:58:38;;;;;;;1.77;1.67;;;;;;;31.13;30.43;97480.00;5005676;28;20109;-75
2022/08/02 10:01:04;;;;;;;1.98;1.88;;;;;;;30.68;31.24;97471.94;4973438;28;20034;-75
2022/08/02 10:03:29;;;;;;;2.95;2.38;;;;;;;30.19;32.66;97476.38;4973231;28;20026;-76
2022/08/02 10:05:57;;;;;;;1.70;1.60;;;;;;;30.11;32.00;97474.00;4991145;28;20034;-75
2022/08/02 10:08:23;;;;;;;2.00;1.90;;;;;;;29.99;32.60;97483.84;4989247;28;20089;-75
2022/08/02 10:10:59;;;;;;;1.92;1.73;;;;;;;29.80;33.14;97476.72;4990765;28;20053;-75
2022/08/02 10:13:33;;;;;;;2.03;1.85;;;;;;;29.77;33.31;97472.06;5003984;28;20032;-76
2022/08/02 10:16:01;;;;;;;2.15;1.95;;;;;;;29.92;33.26;97473.03;4973388;28;20181;-75
2022/08/02 10:18:27;;;;;;;1.80;1.70;;;;;;;30.51;31.83;97476.00;4988667;28;20486;-75
2022/08/02 10:20:54;;;;;;;1.80;1.70;;;;;;;30.89;31.81;97463.28;4973019;28;20039;-75
2022/08/02 10:23:20;;;;;;;1.52;1.50;;;;;;;31.58;29.68;97469.94;4989494;28;20085;-76
2022/08/02 10:25:47;;;;;;;1.83;1.58;;;;;;;32.09;29.61;97463.66;5005744;28;20030;-76
2022/08/02 10:28:14;;;;;;;2.03;1.75;;;;;;;32.37;28.74;97464.13;4989151;28;20118;-76
2022/08/02 10:30:44;;;;;;;2.22;1.85;;;;;;;32.29;28.61;97461.41;4989311;28;20376;-76
2022/08/02 10:33:16;;;;;;;1.67;1.58;;;;;;;32.14;28.51;97451.75;4989333;28;20034;-76
2022/08/02 10:35:42;;;;;;;1.60;1.50;;;;;;;32.43;28.16;97457.22;4989229;28;20117;-76
2022/08/02 10:38:09;;;;;;;1.80;1.70;;;;;;;32.82;28.29;97451.13;4988582;28;20104;-76
2022/08/02 10:40:49;;;;;;;1.98;1.88;;;;;;;32.70;27.68;97444.19;4988786;28;20033;-75
2022/08/02 10:43:46;;;;;;;2.17;2.00;;;;;;;32.65;27.64;97448.03;4989176;28;20238;-75
2022/08/02 10:46:33;;;;;;;1.80;1.70;;;;;;;32.06;28.72;97444.78;4972426;28;20053;-75
2022/08/02 10:49:08;;;;;;;1.90;1.80;;;;;;;31.78;28.93;97445.44;4971838;28;20113;-75
2022/08/02 10:51:52;;;;;;;1.90;1.80;;;;;;;31.49;29.37;97429.88;4990505;28;20034;-75
2022/08/02 10:54:21;;;;;;;1.65;1.55;;;;;;;31.33;29.84;97440.94;4990366;28;20466;-75
2022/08/02 10:56:51;;;;;;;1.92;1.83;;;;;;;31.38;29.93;97437.16;4972444;28;20034;-75
2022/08/02 10:59:25;;;;;;;1.50;1.38;;;;;;;31.04;29.23;97436.53;4989400;28;20264;-75
2022/08/02 11:01:52;;;;;;;1.65;1.65;;;;;;;31.50;28.38;97431.47;4988716;28;20042;-75
2022/08/02 11:04:17;;;;;;;1.90;1.80;;;;;;;31.70;28.50;97428.47;5005022;28;20040;-75
2022/08/02 11:07:05;;;;;;;1.65;1.55;;;;;;;31.92;27.54;97418.56;5004774;28;20034;-75
2022/08/02 11:09:33;;;;;;;1.80;1.60;;;;;;;31.95;27.24;97422.44;4988175;28;20072;-75
2022/08/02 11:12:02;;;;;;;1.65;1.55;;;;;;;31.86;27.46;97420.09;4987882;28;20447;-75
2022/08/02 11:14:27;;;;;;;1.70;1.60;;;;;;;32.28;28.33;97418.69;4989807;28;20105;-75
2022/08/02 11:16:56;;;;;;;1.27;1.25;;;;;;;33.02;27.55;97417.19;5004529;28;20592;-75
2022/08/02 11:19:31;;;;;;;1.70;1.60;;;;;;;33.16;27.06;97415.66;4989064;28;20084;-75
2022/08/02 11:22:06;;;;;;;1.50;1.40;;;;;;;32.98;26.00;97416.41;5004777;28;20371;-75
2022/08/02 11:24:32;;;;;;;1.52;1.42;;;;;;;32.66;26.71;97417.22;4988501;28;20034;-75
2022/08/02 11:26:59;;;;;;;1.70;1.60;;;;;;;32.16;27.38;97417.09;4988275;28;20057;-75
2022/08/02 11:29:42;;;;;;;1.65;1.55;;;;;;;32.23;27.66;97414.44;4987973;28;20045;-75
2022/08/02 11:32:17;;;;;;;1.55;1.45;;;;;;;32.09;27.47;97406.31;5004991;28;20081;-75
2022/08/02 11:34:45;;;;;;;1.63;1.52;;;;;;;32.08;27.31;97415.53;4988220;28;20030;-75
2022/08/02 11:37:11;;;;;;;1.85;1.75;;;;;;;31.70;27.38;97406.94;4988394;28;20227;-75
2022/08/02 11:39:37;;;;;;;1.77;1.67;;;;;;;31.20;28.25;97417.44;5003988;28;20036;-75
2022/08/02 11:42:02;;;;;;;1.50;1.50;;;;;;;31.20;27.98;97417.44;4988314;28;20541;-75